createdAt,value
2023-11-10T00:01:21.809Z,11.32
2023-11-10T00:03:50.284Z,11.32
2023-11-10T00:06:18.785Z,11.27
2023-11-10T00:08:48.638Z,11.28
2023-11-10T00:11:17.702Z,11.29
2023-11-10T00:13:46.120Z,11.29
2023-11-10T00:16:15.638Z,11.29
2023-11-10T00:18:45.596Z,11.24
2023-11-10T00:21:20.683Z,11.24
2023-11-10T00:23:50.415Z,11.23
2023-11-10T00:26:22.088Z,11.20
2023-11-10T00:28:50.496Z,11.21
2023-11-10T00:31:19.866Z,11.21
2023-11-10T00:33:51.314Z,11.22
2023-11-10T00:36:20.468Z,11.23
2023-11-10T00:38:50.309Z,11.21
2023-11-10T00:41:20.458Z,11.22
2023-11-10T00:43:50.099Z,11.21
2023-11-10T00:46:18.664Z,11.22
2023-11-10T00:48:46.996Z,11.21
2023-11-10T00:51:15.642Z,11.20
2023-11-10T00:53:44.197Z,11.19
2023-11-10T00:56:14.107Z,11.16
2023-11-10T00:58:42.918Z,11.13
2023-11-10T01:01:11.914Z,11.10
2023-11-10T01:03:40.413Z,11.08
2023-11-10T01:06:09.394Z,11.04
2023-11-10T01:08:37.894Z,11.03
2023-11-10T01:11:06.568Z,11.01
2023-11-10T01:13:41.735Z,10.98
2023-11-10T01:16:10.272Z,10.96
2023-11-10T01:18:39.502Z,10.95
2023-11-10T01:21:08.800Z,10.95
2023-11-10T01:23:37.422Z,10.91
2023-11-10T01:26:07.308Z,10.91
2023-11-10T01:28:39.108Z,10.89
2023-11-10T01:31:07.410Z,10.89
2023-11-10T01:33:40.696Z,10.86
2023-11-10T01:36:10.193Z,10.83
2023-11-10T01:38:38.907Z,10.82
2023-11-10T01:41:07.728Z,10.80
2023-11-10T01:43:37.544Z,10.77
2023-11-10T01:46:07.916Z,10.73
2023-11-10T01:48:37.969Z,10.72
2023-11-10T01:51:07.036Z,10.68
2023-11-10T01:53:35.593Z,10.66
2023-11-10T01:56:03.877Z,10.60
2023-11-10T01:58:32.252Z,10.57
2023-11-10T02:01:02.577Z,10.55
2023-11-10T02:03:32.262Z,10.52
2023-11-10T02:06:01.839Z,10.49
2023-11-10T02:08:31.194Z,10.47
2023-11-10T02:10:59.733Z,10.44
2023-11-10T02:13:30.963Z,10.42
2023-11-10T02:15:59.561Z,10.40
2023-11-10T02:18:29.259Z,10.37
2023-11-10T02:20:57.676Z,10.31
2023-11-10T02:23:27.829Z,10.28
2023-11-10T02:25:57.631Z,10.24
2023-11-10T02:28:25.985Z,10.23
2023-11-10T02:30:55.050Z,10.19
2023-11-10T02:33:23.456Z,10.16
2023-11-10T02:35:52.153Z,10.13
2023-11-10T02:38:20.533Z,10.09
2023-11-10T02:40:49.086Z,10.06
2023-11-10T02:43:19.644Z,10.01
2023-11-10T02:45:48.257Z,10.00
2023-11-10T02:48:19.218Z,9.96
2023-11-10T02:50:48.766Z,9.95
2023-11-10T02:53:17.267Z,9.92
2023-11-10T02:55:45.726Z,9.90
2023-11-10T02:58:14.336Z,9.88
2023-11-10T03:00:44.564Z,9.87
2023-11-10T03:03:19.325Z,9.82
2023-11-10T03:05:47.874Z,9.79
2023-11-10T03:08:17.532Z,9.77
2023-11-10T03:10:45.989Z,9.73
2023-11-10T03:13:14.715Z,9.73
2023-11-10T03:15:44.955Z,9.74
2023-11-10T03:18:13.596Z,9.75
2023-11-10T03:20:43.800Z,9.76
2023-11-10T03:23:12.224Z,9.77
2023-11-10T03:25:43.293Z,9.77
2023-11-10T03:28:11.634Z,9.79
2023-11-10T03:30:40.160Z,9.80
2023-11-10T03:33:09.783Z,9.80
2023-11-10T03:35:38.705Z,9.82
2023-11-10T03:38:07.043Z,9.82
2023-11-10T03:40:35.494Z,9.82
2023-11-10T03:43:03.877Z,9.81
2023-11-10T03:45:32.482Z,9.81
2023-11-10T03:48:04.294Z,9.83
2023-11-10T03:50:34.506Z,9.83
2023-11-10T03:53:02.808Z,9.84
2023-11-10T03:55:31.271Z,9.84
2023-11-10T03:57:59.773Z,9.85
2023-11-10T04:00:38.966Z,9.86
2023-11-10T04:03:16.935Z,9.86
2023-11-10T04:05:47.709Z,9.85
2023-11-10T04:08:16.473Z,9.84
2023-11-10T04:10:45.087Z,9.84
2023-11-10T04:13:13.492Z,9.83
2023-11-10T04:15:42.872Z,9.82
2023-11-10T04:18:12.463Z,9.81
2023-11-10T04:20:46.462Z,9.81
2023-11-10T04:23:16.979Z,9.78
2023-11-10T04:25:45.484Z,9.77
2023-11-10T04:28:13.959Z,9.77
2023-11-10T04:30:42.678Z,9.76
2023-11-10T04:33:11.209Z,9.76
2023-11-10T04:35:39.698Z,9.76
2023-11-10T04:38:09.944Z,9.73
2023-11-10T04:40:40.114Z,9.69
2023-11-10T04:43:11.106Z,9.66
2023-11-10T04:45:39.529Z,9.62
2023-11-10T04:48:11.363Z,9.60
2023-11-10T04:50:41.591Z,9.57
2023-11-10T04:53:10.065Z,9.56
2023-11-10T04:55:39.872Z,9.54
2023-11-10T04:58:08.637Z,9.52
2023-11-10T05:00:37.437Z,9.48
2023-11-10T05:03:07.524Z,9.47
2023-11-10T05:05:37.528Z,9.44
2023-11-10T05:08:09.669Z,9.43
2023-11-10T05:10:40.433Z,9.41
2023-11-10T05:13:09.066Z,9.39
2023-11-10T05:15:40.086Z,9.41
2023-11-10T05:18:09.038Z,9.41
2023-11-10T05:20:37.918Z,9.39
2023-11-10T05:23:06.347Z,9.40
2023-11-10T05:25:34.710Z,9.40
2023-11-10T05:28:07.551Z,9.39
2023-11-10T05:30:35.989Z,9.38
2023-11-10T05:33:07.860Z,9.35
2023-11-10T05:35:37.208Z,9.37
2023-11-10T05:38:08.787Z,9.36
2023-11-10T05:40:37.212Z,9.36
2023-11-10T05:43:08.031Z,9.34
2023-11-10T05:45:36.558Z,9.33
2023-11-10T05:48:05.870Z,9.32
2023-11-10T05:50:34.644Z,9.29
2023-11-10T05:53:03.489Z,9.29
2023-11-10T05:55:33.953Z,9.28
2023-11-10T05:58:02.373Z,9.27
2023-11-10T06:00:32.256Z,9.26
2023-11-10T06:03:04.667Z,9.25
2023-11-10T06:05:33.061Z,9.24
2023-11-10T06:08:01.872Z,9.25
2023-11-10T06:10:30.277Z,9.25
2023-11-10T06:12:58.654Z,9.26
2023-11-10T06:15:27.311Z,9.27
2023-11-10T06:17:57.225Z,9.27
2023-11-10T06:20:26.054Z,9.27
2023-11-10T06:22:54.494Z,9.26
2023-11-10T06:25:22.826Z,9.26
2023-11-10T06:27:51.259Z,9.27
2023-11-10T06:30:20.591Z,9.26
2023-11-10T06:32:49.525Z,9.25
2023-11-10T06:35:19.345Z,9.24
2023-11-10T06:37:47.732Z,9.23
2023-11-10T06:40:16.361Z,9.22
2023-11-10T06:42:45.953Z,9.24
2023-11-10T06:45:18.059Z,9.23
2023-11-10T06:47:46.481Z,9.24
2023-11-10T06:50:14.933Z,9.25
2023-11-10T06:52:44.983Z,9.25
2023-11-10T06:55:16.149Z,9.26
2023-11-10T06:57:45.995Z,9.23
2023-11-10T07:00:16.022Z,9.24
2023-11-10T07:02:44.725Z,9.24
2023-11-10T07:05:13.360Z,9.24
2023-11-10T07:07:41.954Z,9.25
2023-11-10T07:10:12.717Z,9.28
2023-11-10T07:12:41.192Z,9.29
2023-11-10T07:15:11.323Z,9.33
2023-11-10T07:17:40.276Z,9.34
2023-11-10T07:20:12.521Z,9.37
2023-11-10T07:22:41.090Z,9.36
2023-11-10T07:25:11.579Z,9.38
2023-11-10T07:27:40.251Z,9.37
2023-11-10T07:30:11.801Z,9.38
2023-11-10T07:32:40.435Z,9.39
2023-11-10T07:35:10.185Z,9.39
2023-11-10T07:37:38.546Z,9.43
2023-11-10T07:40:10.168Z,9.46
2023-11-10T07:42:39.901Z,9.50
2023-11-10T07:45:15.556Z,9.54
2023-11-10T07:47:44.653Z,9.58
2023-11-10T07:50:14.566Z,9.62
2023-11-10T07:52:44.012Z,9.65
2023-11-10T07:55:12.910Z,9.72
2023-11-10T07:57:44.432Z,9.78
2023-11-10T08:00:15.207Z,9.85
2023-11-10T08:02:43.850Z,9.93
2023-11-10T08:05:12.683Z,10.01
2023-11-10T08:07:41.146Z,10.09
2023-11-10T08:10:11.340Z,10.18
2023-11-10T08:12:40.500Z,10.26
2023-11-10T08:15:12.135Z,10.32
2023-11-10T08:17:41.012Z,10.40
2023-11-10T08:20:12.224Z,10.46
2023-11-10T08:22:40.585Z,10.53
2023-11-10T08:25:13.189Z,10.59
2023-11-10T08:27:42.041Z,10.67
2023-11-10T08:30:14.505Z,10.72
2023-11-10T08:32:43.225Z,10.78
2023-11-10T08:35:11.976Z,10.84
2023-11-10T08:37:44.417Z,10.89
2023-11-10T08:40:13.734Z,10.93
2023-11-10T08:42:43.603Z,10.99
2023-11-10T08:45:16.294Z,11.03
2023-11-10T08:47:45.438Z,11.09
2023-11-10T08:50:14.772Z,11.13
2023-11-10T08:52:43.723Z,11.17
2023-11-10T08:55:13.129Z,11.21
2023-11-10T08:57:42.001Z,11.25
2023-11-10T09:00:18.351Z,11.29
2023-11-10T09:02:47.705Z,11.34
2023-11-10T09:05:16.288Z,11.37
2023-11-10T09:07:44.909Z,11.41
2023-11-10T09:10:14.178Z,11.44
2023-11-10T09:12:43.698Z,11.47
2023-11-10T09:15:15.624Z,11.49
2023-11-10T09:17:45.200Z,11.53
2023-11-10T09:20:17.213Z,11.57
2023-11-10T09:22:46.004Z,11.60
2023-11-10T09:25:17.879Z,11.63
2023-11-10T09:27:47.016Z,11.65
2023-11-10T09:30:17.966Z,11.69
2023-11-10T09:32:46.318Z,11.72
2023-11-10T09:35:16.180Z,11.75
2023-11-10T09:37:47.624Z,11.79
2023-11-10T09:40:20.857Z,11.82
2023-11-10T09:42:50.001Z,11.84
2023-11-10T09:45:23.355Z,11.86
2023-11-10T09:47:54.688Z,11.91
2023-11-10T09:50:27.410Z,11.93
2023-11-10T09:52:58.146Z,11.97
2023-11-10T09:55:28.329Z,12.01
2023-11-10T09:57:57.573Z,12.04
2023-11-10T10:00:28.032Z,12.06
2023-11-10T10:02:56.624Z,12.14
2023-11-10T10:05:25.537Z,12.18
2023-11-10T10:07:53.900Z,12.25
2023-11-10T10:10:26.140Z,12.28
2023-11-10T10:12:54.587Z,12.30
2023-11-10T10:15:33.194Z,12.32
2023-11-10T10:18:10.811Z,12.35
2023-11-10T10:20:41.554Z,12.39
2023-11-10T10:23:13.851Z,12.41
2023-11-10T10:25:42.440Z,12.47
2023-11-10T10:28:11.136Z,12.48
2023-11-10T10:30:42.652Z,12.48
2023-11-10T10:33:11.850Z,12.51
2023-11-10T10:35:40.503Z,12.54
2023-11-10T10:38:11.454Z,12.55
2023-11-10T10:40:40.655Z,12.57
2023-11-10T10:43:09.629Z,12.58
2023-11-10T10:45:40.420Z,12.58
2023-11-10T10:48:10.226Z,12.61
2023-11-10T10:50:39.657Z,12.63
2023-11-10T10:53:10.117Z,12.63
2023-11-10T10:55:42.063Z,12.64
2023-11-10T10:58:10.927Z,12.69
2023-11-10T11:00:40.943Z,12.71
2023-11-10T11:03:30.361Z,12.75
2023-11-10T11:06:16.112Z,12.81
2023-11-10T11:09:23.060Z,12.86
2023-11-10T11:12:27.264Z,12.93
2023-11-10T11:15:01.519Z,12.97
2023-11-10T11:17:57.082Z,13.02
2023-11-10T11:20:25.937Z,13.07
2023-11-10T11:22:55.150Z,13.09
2023-11-10T11:25:24.641Z,13.12
2023-11-10T11:28:00.483Z,13.13
2023-11-10T11:30:37.626Z,13.16
2023-11-10T11:33:11.426Z,13.18
2023-11-10T11:35:48.614Z,13.19
2023-11-10T11:38:27.860Z,13.22
2023-11-10T11:40:59.097Z,13.20
2023-11-10T11:43:28.058Z,13.22
2023-11-10T11:45:57.551Z,13.20
2023-11-10T11:48:27.333Z,13.20
2023-11-10T11:50:58.212Z,13.22
2023-11-10T11:53:27.153Z,13.24
2023-11-10T11:55:56.629Z,13.30
2023-11-10T11:58:26.933Z,13.35
2023-11-10T12:00:55.692Z,13.34
2023-11-10T12:03:24.255Z,13.40
2023-11-10T12:05:54.462Z,13.42
2023-11-10T12:08:23.535Z,13.47
2023-11-10T12:10:51.987Z,13.52
2023-11-10T12:13:22.246Z,13.59
2023-11-10T12:15:50.912Z,13.60
2023-11-10T12:18:19.963Z,13.63
2023-11-10T12:20:49.247Z,13.66
2023-11-10T12:23:19.680Z,13.69
2023-11-10T12:25:49.325Z,13.68
2023-11-10T12:28:17.695Z,13.71
2023-11-10T12:30:47.417Z,13.73
2023-11-10T12:33:17.825Z,13.74
2023-11-10T12:35:47.755Z,13.76
2023-11-10T12:38:16.093Z,13.78
2023-11-10T12:40:45.794Z,13.82
2023-11-10T12:43:14.375Z,13.84
2023-11-10T12:45:42.862Z,13.85
2023-11-10T12:48:15.766Z,13.84
2023-11-10T12:50:48.538Z,13.86
2023-11-10T12:53:20.358Z,13.87
2023-11-10T12:55:50.062Z,13.88
2023-11-10T12:58:18.413Z,13.89
2023-11-10T13:00:48.367Z,13.88
2023-11-10T13:03:16.814Z,13.88
2023-11-10T13:05:45.483Z,13.87
2023-11-10T13:08:14.022Z,13.86
2023-11-10T13:10:42.564Z,13.86
2023-11-10T13:13:12.418Z,13.88
2023-11-10T13:15:40.812Z,13.88
2023-11-10T13:18:09.161Z,13.90
2023-11-10T13:20:38.356Z,13.88
2023-11-10T13:23:08.008Z,13.89
2023-11-10T13:25:37.605Z,13.90
2023-11-10T13:28:09.051Z,13.90
2023-11-10T13:30:38.796Z,13.91
2023-11-10T13:33:09.319Z,13.92
2023-11-10T13:35:38.697Z,13.93
2023-11-10T13:38:07.089Z,13.93
2023-11-10T13:40:35.492Z,13.94
2023-11-10T13:43:04.058Z,13.95
2023-11-10T13:45:33.511Z,13.95
2023-11-10T13:48:03.380Z,13.96
2023-11-10T13:50:31.676Z,13.97
2023-11-10T13:53:00.959Z,13.94
2023-11-10T13:55:29.324Z,13.96
2023-11-10T13:57:58.164Z,13.95
2023-11-10T14:00:28.083Z,13.96
2023-11-10T14:02:56.486Z,13.96
2023-11-10T14:05:26.225Z,13.95
2023-11-10T14:07:54.867Z,13.97
2023-11-10T14:10:26.412Z,13.97
2023-11-10T14:12:54.929Z,13.97
2023-11-10T14:15:24.584Z,13.97
2023-11-10T14:17:53.031Z,13.98
2023-11-10T14:20:22.503Z,13.98
2023-11-10T14:22:52.388Z,13.98
2023-11-10T14:25:23.559Z,13.98
2023-11-10T14:27:51.908Z,14.00
2023-11-10T14:30:20.305Z,13.97
2023-11-10T14:32:48.904Z,13.96
2023-11-10T14:35:17.618Z,13.96
2023-11-10T14:37:46.871Z,13.94
2023-11-10T14:40:18.501Z,13.93
2023-11-10T14:42:51.344Z,13.89
2023-11-10T14:45:23.310Z,13.87
2023-11-10T14:47:52.892Z,13.86
2023-11-10T14:50:36.054Z,13.84
2023-11-10T14:53:17.555Z,13.82
2023-11-10T14:55:49.135Z,13.79
2023-11-10T14:58:19.822Z,13.79
2023-11-10T15:00:48.917Z,13.79
2023-11-10T15:03:19.290Z,13.78
2023-11-10T15:05:47.881Z,13.77
2023-11-10T15:08:17.667Z,13.77
2023-11-10T15:10:50.119Z,13.76
2023-11-10T15:13:18.530Z,13.74
2023-11-10T15:15:49.746Z,13.72
2023-11-10T15:18:24.062Z,13.69
2023-11-10T15:20:53.058Z,13.66
2023-11-10T15:23:21.697Z,13.64
2023-11-10T15:25:51.510Z,13.58
2023-11-10T15:28:20.212Z,13.56
2023-11-10T15:30:48.937Z,13.54
2023-11-10T15:33:19.020Z,13.51
2023-11-10T15:35:48.273Z,13.49
2023-11-10T15:38:17.560Z,13.45
2023-11-10T15:40:46.839Z,13.39
2023-11-10T15:43:17.005Z,13.34
2023-11-10T15:45:46.479Z,13.31
2023-11-10T15:48:15.006Z,13.26
2023-11-10T15:50:43.620Z,13.23
2023-11-10T15:53:13.700Z,13.20
2023-11-10T15:55:42.913Z,13.16
2023-11-10T15:58:12.583Z,13.15
2023-11-10T16:00:43.045Z,13.12
2023-11-10T16:03:11.719Z,13.08
2023-11-10T16:05:43.233Z,13.04
2023-11-10T16:08:12.673Z,12.98
2023-11-10T16:10:41.102Z,12.90
2023-11-10T16:13:09.467Z,12.81
2023-11-10T16:15:39.230Z,12.75
2023-11-10T16:18:10.669Z,12.69
2023-11-10T16:20:39.046Z,12.67
2023-11-10T16:23:07.376Z,12.63
2023-11-10T16:25:36.090Z,12.60
2023-11-10T16:28:04.622Z,12.58
2023-11-10T16:30:33.713Z,12.55
2023-11-10T16:33:02.188Z,12.51
2023-11-10T16:35:31.968Z,12.47
2023-11-10T16:38:00.354Z,12.44
2023-11-10T16:40:28.925Z,12.43
2023-11-10T16:42:58.933Z,12.39
2023-11-10T16:45:27.697Z,12.32
2023-11-10T16:47:56.193Z,12.22
2023-11-10T16:50:24.849Z,12.18
2023-11-10T16:52:54.555Z,12.12
2023-11-10T16:55:24.419Z,12.11
2023-11-10T16:57:52.876Z,12.08
2023-11-10T17:00:27.053Z,12.03
2023-11-10T17:03:01.744Z,12.00
2023-11-10T17:05:31.116Z,11.96
2023-11-10T17:08:00.873Z,11.94
2023-11-10T17:10:33.714Z,11.92
2023-11-10T17:13:02.456Z,11.90
2023-11-10T17:15:31.028Z,11.88
2023-11-10T17:17:59.396Z,11.88
2023-11-10T17:20:27.951Z,11.86
2023-11-10T17:22:56.292Z,11.85
2023-11-10T17:25:26.010Z,11.84
2023-11-10T17:27:54.724Z,11.83
2023-11-10T17:30:23.190Z,11.81
2023-11-10T17:32:51.711Z,11.79
2023-11-10T17:35:20.370Z,11.77
2023-11-10T17:37:49.430Z,11.75
2023-11-10T17:40:18.297Z,11.72
2023-11-10T17:42:48.120Z,11.68
2023-11-10T17:45:18.540Z,11.64
2023-11-10T17:47:48.810Z,11.61
2023-11-10T17:50:19.982Z,11.53
2023-11-10T17:52:48.321Z,11.49
2023-11-10T17:55:17.074Z,11.48
2023-11-10T17:57:45.525Z,11.45
2023-11-10T18:00:16.952Z,11.43
2023-11-10T18:02:45.303Z,11.44
2023-11-10T18:05:13.890Z,11.44
2023-11-10T18:07:42.370Z,11.43
2023-11-10T18:10:11.579Z,11.44
2023-11-10T18:12:40.015Z,11.43
2023-11-10T18:15:11.035Z,11.43
2023-11-10T18:17:40.748Z,11.41
2023-11-10T18:20:11.122Z,11.42
2023-11-10T18:22:39.529Z,11.41
2023-11-10T18:25:09.894Z,11.41
2023-11-10T18:27:38.340Z,11.39
2023-11-10T18:30:10.410Z,11.38
2023-11-10T18:32:40.737Z,11.33
2023-11-10T18:35:12.343Z,11.29
2023-11-10T18:37:40.774Z,11.26
2023-11-10T18:40:11.849Z,11.20
2023-11-10T18:42:45.016Z,11.15
2023-11-10T18:45:14.195Z,11.10
2023-11-10T18:47:44.134Z,11.04
2023-11-10T18:50:15.135Z,10.98
2023-11-10T18:52:43.648Z,10.91
2023-11-10T18:55:13.027Z,10.87
2023-11-10T18:57:41.556Z,10.84
2023-11-10T19:00:11.712Z,10.81
2023-11-10T19:02:40.698Z,10.80
2023-11-10T19:05:10.919Z,10.78
2023-11-10T19:07:39.966Z,10.79
2023-11-10T19:10:11.701Z,10.77
2023-11-10T19:12:40.233Z,10.78
2023-11-10T19:15:09.984Z,10.78
2023-11-10T19:17:38.462Z,10.78
2023-11-10T19:20:11.030Z,10.77
2023-11-10T19:22:40.729Z,10.77
2023-11-10T19:25:10.719Z,10.78
2023-11-10T19:27:39.901Z,10.77
2023-11-10T19:30:10.008Z,10.77
2023-11-10T19:32:39.003Z,10.77
2023-11-10T19:35:10.280Z,10.75
2023-11-10T19:37:38.714Z,10.75
2023-11-10T19:40:10.964Z,10.74
2023-11-10T19:42:39.988Z,10.73
2023-11-10T19:45:11.384Z,10.72
2023-11-10T19:47:39.771Z,10.71
2023-11-10T19:50:10.843Z,10.70
2023-11-10T19:52:39.260Z,10.69
2023-11-10T19:55:12.840Z,10.68
2023-11-10T19:57:41.452Z,10.65
2023-11-10T20:02:47.743Z,10.62
2023-11-10T20:05:18.297Z,10.61
2023-11-10T20:07:46.692Z,10.59
2023-11-10T20:10:15.056Z,10.57
2023-11-10T20:12:43.448Z,10.56
2023-11-10T20:15:14.820Z,10.54
2023-11-10T20:17:43.430Z,10.53
2023-11-10T20:20:14.188Z,10.51
2023-11-10T20:22:43.967Z,10.48
2023-11-10T20:25:12.361Z,10.45
2023-11-10T20:27:40.842Z,10.41
2023-11-10T20:30:11.985Z,10.40
2023-11-10T20:32:41.148Z,10.37
2023-11-10T20:35:12.665Z,10.34
2023-11-10T20:37:41.063Z,10.31
2023-11-10T20:40:12.130Z,10.28
2023-11-10T20:42:40.956Z,10.24
2023-11-10T20:45:16.293Z,10.20
2023-11-10T20:47:44.788Z,10.18
2023-11-10T20:50:13.143Z,10.15
2023-11-10T20:52:41.903Z,10.12
2023-11-10T20:55:11.863Z,10.08
2023-11-10T20:57:40.237Z,10.05
2023-11-10T21:00:10.719Z,10.03
2023-11-10T21:02:40.235Z,10.00
2023-11-10T21:05:10.582Z,9.95
2023-11-10T21:07:39.505Z,9.93
2023-11-10T21:10:09.557Z,9.90
2023-11-10T21:12:42.469Z,9.85
2023-11-10T21:15:12.449Z,9.84
2023-11-10T21:17:40.894Z,9.82
2023-11-10T21:20:11.249Z,9.78
2023-11-10T21:22:39.767Z,9.77
2023-11-10T21:25:10.322Z,9.75
2023-11-10T21:27:41.862Z,9.73
2023-11-10T21:30:11.830Z,9.70
2023-11-10T21:32:41.421Z,9.65
2023-11-10T21:35:10.164Z,9.64
2023-11-10T21:37:38.534Z,9.62
2023-11-10T21:40:11.844Z,9.60
2023-11-10T21:42:41.593Z,9.57
2023-11-10T21:45:10.280Z,9.54
2023-11-10T21:47:38.688Z,9.55
2023-11-10T21:50:10.012Z,9.52
2023-11-10T21:52:38.585Z,9.49
2023-11-10T21:55:07.335Z,9.47
2023-11-10T21:57:36.596Z,9.43
2023-11-10T22:00:10.114Z,9.40
2023-11-10T22:02:38.607Z,9.38
2023-11-10T22:05:08.171Z,9.36
2023-11-10T22:07:39.384Z,9.34
2023-11-10T22:10:10.942Z,9.32
2023-11-10T22:12:40.711Z,9.28
2023-11-10T22:15:12.268Z,9.28
2023-11-10T22:17:40.940Z,9.28
2023-11-10T22:20:11.193Z,9.27
2023-11-10T22:22:41.020Z,9.25
2023-11-10T22:25:11.885Z,9.25
2023-11-10T22:27:41.318Z,9.24
2023-11-10T22:30:12.757Z,9.22
2023-11-10T22:32:41.753Z,9.20
2023-11-10T22:35:12.843Z,9.19
2023-11-10T22:37:41.346Z,9.19
2023-11-10T22:40:11.543Z,9.17
2023-11-10T22:42:41.911Z,9.16
2023-11-10T22:45:14.429Z,9.14
2023-11-10T22:47:44.392Z,9.12
2023-11-10T22:50:13.453Z,9.10
2023-11-10T22:52:41.818Z,9.08
2023-11-10T22:55:14.953Z,9.04
2023-11-10T22:57:46.508Z,9.02
2023-11-10T23:00:28.692Z,8.99
2023-11-10T23:02:57.735Z,8.96
2023-11-10T23:05:26.224Z,8.93
2023-11-10T23:07:55.655Z,8.91
2023-11-10T23:10:27.606Z,8.89
2023-11-10T23:12:59.406Z,8.85
2023-11-10T23:15:30.054Z,8.82
2023-11-10T23:17:59.882Z,8.77
2023-11-10T23:20:34.422Z,8.74
2023-11-10T23:23:04.994Z,8.70
2023-11-10T23:25:34.420Z,8.66
2023-11-10T23:28:04.469Z,8.63
2023-11-10T23:30:35.441Z,8.60
2023-11-10T23:33:04.285Z,8.57
2023-11-10T23:35:35.037Z,8.56
2023-11-10T23:38:03.534Z,8.55
2023-11-10T23:40:34.634Z,8.54
2023-11-10T23:43:03.156Z,8.54
2023-11-10T23:45:31.570Z,8.53
2023-11-10T23:48:01.461Z,8.52
2023-11-10T23:50:30.760Z,8.51
2023-11-10T23:52:59.293Z,8.51
2023-11-10T23:55:28.203Z,8.51
2023-11-10T23:57:56.510Z,8.53
